Khanty Mansiysk Airport


Codes: USHH/HMA
Name: Khanty Mansiysk Airport
City: Khanty-Mansiysk
Country: Russia
Elevation: 76 ft.
Wikipedia:

Photos at Khanty Mansiysk Airport


   Photos courtesy of SpottingLog. You can add your own sightings and photos by signing up for a free trial today.



No photos found.

Weather at Khanty Mansiysk Airport


Time (UTC)DescriptionTempratureWindCloud coverageVisibilityPressureHumidity
16-Jun-2024 00:00Light Rain18°C11 mph, NE40%10000m1008hPa94%
16-Jun-2024 03:00Broken Clouds18°C11 mph, NE60%10000m1009hPa91%
16-Jun-2024 06:00Broken Clouds19°C9 mph, NE80%10000m1010hPa82%
16-Jun-2024 09:00Overcast Clouds20°C9 mph, NE100%10000m1011hPa71%
16-Jun-2024 12:00Overcast Clouds19°C13 mph, N100%10000m1011hPa71%
16-Jun-2024 15:00Overcast Clouds17°C9 mph, N100%10000m1011hPa77%
16-Jun-2024 18:00Light Rain15°C11 mph, N100%10000m1012hPa92%
16-Jun-2024 21:00Light Rain13°C13 mph, N100%10000m1012hPa82%
17-Jun-2024 00:00Light Rain11°C16 mph, N100%10000m1013hPa89%
17-Jun-2024 03:00Overcast Clouds11°C16 mph, N97%10000m1014hPa85%
17-Jun-2024 06:00Overcast Clouds12°C16 mph, N97%10000m1015hPa80%
17-Jun-2024 09:00Overcast Clouds14°C13 mph, N100%10000m1016hPa66%
17-Jun-2024 12:00Overcast Clouds17°C4 mph, NE96%10000m1015hPa52%
17-Jun-2024 15:00Broken Clouds16°C9 mph, N82%10000m1015hPa54%
17-Jun-2024 18:00Overcast Clouds13°C9 mph, N90%10000m1016hPa70%
17-Jun-2024 21:00Scattered Clouds10°C9 mph, NW28%10000m1017hPa83%
18-Jun-2024 00:00Scattered Clouds11°C9 mph, NW33%10000m1018hPa79%
18-Jun-2024 03:00Clear Sky15°C11 mph, NW3%10000m1019hPa58%
18-Jun-2024 06:00Clear Sky19°C18 mph, NW2%10000m1018hPa42%
18-Jun-2024 09:00Clear Sky20°C18 mph, NW5%10000m1018hPa27%
18-Jun-2024 12:00Clear Sky20°C16 mph, NW2%10000m1018hPa25%
18-Jun-2024 15:00Clear Sky17°C9 mph, N0%10000m1018hPa39%
18-Jun-2024 18:00Clear Sky12°C7 mph, N2%10000m1018hPa45%
18-Jun-2024 21:00Few Clouds10°C2 mph, S14%10000m1017hPa48%
19-Jun-2024 00:00Broken Clouds12°C7 mph, SW56%10000m1016hPa50%
19-Jun-2024 03:00Overcast Clouds16°C4 mph, NW100%10000m1015hPa38%
19-Jun-2024 06:00Overcast Clouds19°C4 mph, NE100%10000m1014hPa37%
19-Jun-2024 09:00Overcast Clouds21°C2 mph, SE97%10000m1012hPa38%
19-Jun-2024 12:00Overcast Clouds17°C13 mph, W99%10000m1011hPa60%
19-Jun-2024 15:00Light Rain15°C4 mph, W100%10000m1010hPa82%
19-Jun-2024 18:00Light Rain14°C7 mph, E100%10000m1009hPa75%
19-Jun-2024 21:00Overcast Clouds12°C13 mph, E100%10000m1008hPa54%
20-Jun-2024 00:00Overcast Clouds11°C13 mph, SE92%10000m1007hPa49%
20-Jun-2024 03:00Overcast Clouds13°C13 mph, SE100%10000m1006hPa48%
20-Jun-2024 06:00Overcast Clouds17°C16 mph, SE100%10000m1004hPa50%
20-Jun-2024 09:00Light Rain15°C13 mph, SE100%10000m1004hPa72%
20-Jun-2024 12:00Overcast Clouds14°C11 mph, SE100%10000m1002hPa81%
20-Jun-2024 15:00Overcast Clouds14°C9 mph, SE100%10000m1001hPa89%
20-Jun-2024 18:00Overcast Clouds14°C4 mph, SE100%10000m1000hPa94%
20-Jun-2024 21:00Light Rain13°C4 mph, N100%10000m999hPa97%